createdAt,value
2022-12-25T00:00:42.107Z,9.43
2022-12-25T00:03:08.819Z,8.80
2022-12-25T00:05:39.083Z,9.17
2022-12-25T00:08:06.703Z,9.00
2022-12-25T00:10:33.737Z,10.30
2022-12-25T00:13:00.342Z,9.13
2022-12-25T00:15:26.939Z,8.67
2022-12-25T00:17:53.559Z,9.50
2022-12-25T00:20:20.356Z,8.27
2022-12-25T00:22:46.905Z,8.50
2022-12-25T00:25:13.546Z,7.77
2022-12-25T00:27:41.257Z,8.37
2022-12-25T00:30:08.535Z,8.10
2022-12-25T00:32:37.294Z,9.23
2022-12-25T00:35:05.574Z,8.37
2022-12-25T00:37:32.385Z,8.10
2022-12-25T00:39:59.080Z,7.60
2022-12-25T00:42:28.364Z,9.80
2022-12-25T00:44:54.944Z,7.50
2022-12-25T00:47:21.639Z,7.20
2022-12-25T00:49:48.304Z,9.37
2022-12-25T00:52:15.512Z,7.10
2022-12-25T00:54:42.078Z,8.67
2022-12-25T00:57:09.071Z,7.43
2022-12-25T00:59:35.774Z,7.53
2022-12-25T01:02:22.594Z,6.77
2022-12-25T01:04:55.514Z,7.30
2022-12-25T01:07:24.554Z,7.60
2022-12-25T01:10:10.000Z,7.37
2022-12-25T01:12:40.298Z,7.20
2022-12-25T01:15:08.717Z,6.90
2022-12-25T01:17:35.484Z,7.27
2022-12-25T01:20:02.520Z,6.60
2022-12-25T01:22:29.419Z,7.70
2022-12-25T01:24:55.995Z,6.67
2022-12-25T01:27:22.627Z,7.30
2022-12-25T01:29:49.297Z,6.50
2022-12-25T01:32:15.957Z,8.87
2022-12-25T01:34:42.497Z,6.17
2022-12-25T01:37:09.120Z,6.03
2022-12-25T01:39:35.715Z,6.40
2022-12-25T01:42:02.384Z,6.80
2022-12-25T01:44:35.046Z,6.50
2022-12-25T01:47:06.078Z,6.97
2022-12-25T01:49:36.188Z,5.17
2022-12-25T01:52:11.427Z,6.10
2022-12-25T01:54:45.225Z,5.50
2022-12-25T01:57:18.699Z,6.07
2022-12-25T01:59:46.386Z,6.10
2022-12-25T02:02:13.294Z,6.20
2022-12-25T02:04:57.331Z,5.20
2022-12-25T02:07:27.081Z,4.83
2022-12-25T02:09:54.028Z,5.00
2022-12-25T02:12:32.595Z,6.27
2022-12-25T02:15:27.429Z,6.07
2022-12-25T02:18:11.517Z,6.47
2022-12-25T02:20:44.293Z,5.40
2022-12-25T02:23:19.782Z,5.20
2022-12-25T02:26:16.803Z,6.37
2022-12-25T02:29:02.059Z,5.53
2022-12-25T02:31:51.338Z,4.97
2022-12-25T02:34:25.426Z,5.17
2022-12-25T02:37:06.414Z,5.07
2022-12-25T02:40:00.308Z,4.83
2022-12-25T02:43:25.611Z,4.73
2022-12-25T02:46:16.640Z,6.07
2022-12-25T02:49:06.685Z,6.00
2022-12-25T02:51:55.154Z,5.00
2022-12-25T02:54:47.039Z,5.23
2022-12-25T02:57:34.869Z,5.80
2022-12-25T03:00:22.188Z,4.87
2022-12-25T03:03:09.116Z,4.90
2022-12-25T03:05:57.888Z,4.80
2022-12-25T03:08:33.754Z,6.17
2022-12-25T03:11:22.237Z,5.43
2022-12-25T03:13:53.393Z,5.20
2022-12-25T03:16:38.837Z,5.93
2022-12-25T03:19:25.462Z,4.80
2022-12-25T03:22:13.208Z,5.13
2022-12-25T03:24:59.681Z,4.83
2022-12-25T03:27:29.502Z,3.70
2022-12-25T03:30:14.787Z,4.17
2022-12-25T03:32:44.078Z,3.00
2022-12-25T03:35:29.774Z,3.70
2022-12-25T03:38:28.723Z,4.90
2022-12-25T03:41:46.216Z,3.30
2022-12-25T03:45:16.875Z,3.10
2022-12-25T03:48:06.918Z,6.67
2022-12-25T03:50:57.277Z,4.40
2022-12-25T03:53:49.189Z,3.87
2022-12-25T03:56:37.029Z,2.87
2022-12-25T03:59:24.170Z,3.80
2022-12-25T04:02:10.559Z,3.67
2022-12-25T04:04:56.222Z,2.90
2022-12-25T04:07:41.524Z,3.47
2022-12-25T04:10:27.567Z,3.20
2022-12-25T04:13:12.957Z,2.67
2022-12-25T04:15:58.389Z,3.60
2022-12-25T04:18:43.786Z,2.80
2022-12-25T04:21:29.092Z,3.47
2022-12-25T04:24:14.463Z,3.07
2022-12-25T04:26:59.852Z,2.90
2022-12-25T04:29:45.082Z,2.70
2022-12-25T04:32:30.606Z,3.20
2022-12-25T04:35:15.609Z,3.10
2022-12-25T04:37:42.235Z,3.33
2022-12-25T04:40:09.460Z,3.60
2022-12-25T04:42:36.076Z,3.50
2022-12-25T04:45:02.719Z,3.10
2022-12-25T04:47:29.299Z,3.07
2022-12-25T04:49:55.850Z,2.77
2022-12-25T04:52:22.444Z,2.47
2022-12-25T04:54:49.073Z,2.60
2022-12-25T04:57:16.295Z,2.37
2022-12-25T04:59:42.923Z,2.83
2022-12-25T05:02:09.545Z,3.70
2022-12-25T05:04:36.179Z,3.03
2022-12-25T05:07:02.768Z,2.67
2022-12-25T05:09:29.462Z,2.80
2022-12-25T05:11:56.003Z,2.90
2022-12-25T05:14:22.551Z,2.97
2022-12-25T05:16:49.247Z,2.17
2022-12-25T05:19:15.786Z,2.50
2022-12-25T05:21:42.357Z,2.17
2022-12-25T05:24:08.928Z,3.40
2022-12-25T05:26:35.536Z,2.50
2022-12-25T05:29:02.140Z,1.97
2022-12-25T05:31:28.769Z,1.83
2022-12-25T05:33:55.371Z,3.30
2022-12-25T05:36:21.990Z,2.00
2022-12-25T05:38:48.580Z,2.70
2022-12-25T05:41:15.248Z,4.43
2022-12-25T05:43:41.857Z,5.33
2022-12-25T05:46:10.221Z,7.67
2022-12-25T05:48:38.350Z,4.73
2022-12-25T05:51:13.158Z,4.27
2022-12-25T05:53:41.074Z,2.90
2022-12-25T05:56:08.597Z,1.73
2022-12-25T05:58:37.043Z,1.47
2022-12-25T06:01:04.135Z,1.20
2022-12-25T06:03:30.951Z,1.90
2022-12-25T06:05:57.579Z,3.10
2022-12-25T06:08:24.124Z,2.57
2022-12-25T06:10:50.734Z,5.80
2022-12-25T06:13:17.320Z,3.33
2022-12-25T06:15:43.947Z,5.10
2022-12-25T06:18:10.628Z,2.43
2022-12-25T06:20:40.558Z,2.33
2022-12-25T06:23:07.194Z,2.60
2022-12-25T06:25:33.808Z,2.10
2022-12-25T06:28:00.453Z,3.40
2022-12-25T06:30:27.059Z,3.50
2022-12-25T06:32:53.631Z,2.80
2022-12-25T06:35:20.183Z,2.90
2022-12-25T06:37:46.781Z,3.50
2022-12-25T06:40:13.659Z,3.00
2022-12-25T06:42:40.218Z,3.40
2022-12-25T06:45:07.361Z,3.80
2022-12-25T06:47:33.951Z,3.80
2022-12-25T06:50:00.629Z,3.53
2022-12-25T06:52:27.276Z,3.53
2022-12-25T06:54:53.896Z,2.73
2022-12-25T06:57:20.530Z,2.93
2022-12-25T06:59:51.388Z,3.20
2022-12-25T07:02:24.052Z,2.93
2022-12-25T07:04:51.689Z,2.60
2022-12-25T07:07:18.293Z,3.17
2022-12-25T07:09:44.933Z,2.87
2022-12-25T07:12:20.641Z,3.70
2022-12-25T07:14:49.862Z,3.70
2022-12-25T07:17:17.356Z,3.67
2022-12-25T07:19:45.417Z,3.60
2022-12-25T07:22:12.705Z,3.60
2022-12-25T07:24:39.321Z,4.23
2022-12-25T07:27:06.287Z,3.80
2022-12-25T07:29:32.828Z,3.43
2022-12-25T07:31:59.602Z,3.77
2022-12-25T07:34:26.383Z,3.90
2022-12-25T07:36:54.797Z,3.63
2022-12-25T07:39:21.388Z,4.50
2022-12-25T07:41:48.020Z,3.80
2022-12-25T07:44:15.586Z,3.83
2022-12-25T07:46:42.538Z,3.60
2022-12-25T07:49:09.392Z,3.50
2022-12-25T07:51:35.941Z,4.07
2022-12-25T07:54:02.538Z,3.60
2022-12-25T07:56:29.260Z,3.63
2022-12-25T07:58:55.842Z,3.23
2022-12-25T08:01:24.462Z,4.53
2022-12-25T08:03:56.534Z,4.30
2022-12-25T08:06:29.357Z,4.40
2022-12-25T08:08:57.461Z,4.13
2022-12-25T08:11:24.019Z,4.50
2022-12-25T08:13:50.642Z,3.97
2022-12-25T08:16:17.348Z,4.30
2022-12-25T08:18:44.343Z,4.20
2022-12-25T08:21:14.176Z,3.77
2022-12-25T08:23:45.307Z,3.97
2022-12-25T08:26:17.949Z,3.70
2022-12-25T08:28:44.827Z,3.23
2022-12-25T08:31:15.874Z,3.87
2022-12-25T08:33:42.797Z,3.50
2022-12-25T08:36:10.937Z,4.73
2022-12-25T08:38:38.104Z,3.90
2022-12-25T08:41:05.106Z,4.40
2022-12-25T08:43:31.690Z,4.63
2022-12-25T08:45:58.436Z,4.00
2022-12-25T08:48:25.360Z,4.83
2022-12-25T08:50:53.104Z,5.30
2022-12-25T08:53:20.111Z,5.10
2022-12-25T08:55:46.654Z,6.40
2022-12-25T08:58:14.566Z,6.77
2022-12-25T09:00:41.486Z,6.90
2022-12-25T09:03:08.193Z,8.70
2022-12-25T09:05:36.155Z,7.40
2022-12-25T09:08:02.790Z,8.73
2022-12-25T09:10:29.887Z,7.30
2022-12-25T09:12:56.888Z,6.67
2022-12-25T09:15:23.620Z,6.73
2022-12-25T09:17:50.199Z,6.87
2022-12-25T09:20:16.866Z,7.30
2022-12-25T09:22:43.565Z,6.93
2022-12-25T09:25:10.338Z,7.53
2022-12-25T09:27:37.001Z,7.27
2022-12-25T09:30:05.013Z,6.70
2022-12-25T09:32:31.591Z,6.67
2022-12-25T09:34:58.500Z,6.90
2022-12-25T09:37:25.149Z,5.60
2022-12-25T09:39:52.797Z,5.27
2022-12-25T09:42:22.937Z,5.27
2022-12-25T09:44:56.624Z,5.63
2022-12-25T09:47:29.264Z,5.47
2022-12-25T09:50:17.178Z,5.37
2022-12-25T09:52:54.581Z,5.47
2022-12-25T09:55:26.594Z,5.07
2022-12-25T09:57:56.008Z,6.10
2022-12-25T10:00:25.924Z,5.93
2022-12-25T10:02:55.775Z,6.40
2022-12-25T10:05:54.519Z,5.47
2022-12-25T10:08:58.550Z,6.40
2022-12-25T10:11:40.273Z,6.00
2022-12-25T10:14:44.537Z,6.40
2022-12-25T10:17:16.991Z,6.60
2022-12-25T10:19:46.323Z,6.10
2022-12-25T10:22:40.001Z,6.27
2022-12-25T10:25:14.547Z,9.53
2022-12-25T10:27:42.817Z,8.10
2022-12-25T10:30:28.771Z,7.50
2022-12-25T10:32:57.631Z,7.50
2022-12-25T10:35:27.161Z,8.27
2022-12-25T10:38:14.246Z,7.87
2022-12-25T10:41:13.784Z,7.53
2022-12-25T10:43:50.959Z,6.80
2022-12-25T10:46:19.281Z,6.53
2022-12-25T10:49:02.943Z,5.70
2022-12-25T10:51:36.785Z,6.00
2022-12-25T10:54:20.732Z,6.20
2022-12-25T10:56:56.265Z,6.40
2022-12-25T10:59:23.665Z,7.30
2022-12-25T11:01:55.013Z,6.50
2022-12-25T11:04:26.704Z,7.00
2022-12-25T11:07:00.562Z,5.73
2022-12-25T11:09:27.505Z,5.43
2022-12-25T11:11:54.155Z,5.57
2022-12-25T11:14:22.643Z,5.57
2022-12-25T11:16:50.375Z,5.70
2022-12-25T11:19:33.002Z,5.83
2022-12-25T11:22:01.872Z,5.40
2022-12-25T11:24:31.077Z,5.50
2022-12-25T11:27:00.436Z,5.93
2022-12-25T11:29:47.390Z,5.63
2022-12-25T11:32:24.894Z,5.67
2022-12-25T11:34:52.799Z,6.30
2022-12-25T11:37:24.014Z,6.30
2022-12-25T11:39:50.746Z,6.00
2022-12-25T11:42:36.549Z,6.47
2022-12-25T11:45:15.394Z,7.17
2022-12-25T11:48:11.163Z,7.63
2022-12-25T11:50:59.197Z,6.70
2022-12-25T11:53:30.417Z,7.53
2022-12-25T11:56:06.454Z,8.20
2022-12-25T11:58:40.907Z,7.87
2022-12-25T12:01:35.323Z,8.10
2022-12-25T12:04:06.299Z,8.67
2022-12-25T12:07:01.040Z,7.63
2022-12-25T12:09:46.375Z,7.33
2022-12-25T12:12:29.535Z,6.90
2022-12-25T12:15:28.436Z,6.80
2022-12-25T12:17:55.739Z,7.00
2022-12-25T12:20:31.793Z,7.17
2022-12-25T12:23:00.450Z,6.60
2022-12-25T12:25:28.824Z,7.20
2022-12-25T12:28:04.510Z,7.00
2022-12-25T12:30:35.382Z,6.80
2022-12-25T12:33:05.021Z,7.60
2022-12-25T12:35:35.030Z,7.40
2022-12-25T12:38:09.816Z,6.60
2022-12-25T12:40:54.250Z,6.47
2022-12-25T12:43:42.112Z,5.73
2022-12-25T12:46:17.966Z,7.20
2022-12-25T12:48:47.656Z,7.00
2022-12-25T12:51:28.040Z,6.53
2022-12-25T12:54:20.514Z,7.63
2022-12-25T12:57:25.198Z,6.60
2022-12-25T12:59:51.818Z,7.00
2022-12-25T13:02:42.918Z,7.43
2022-12-25T13:05:35.598Z,7.50
2022-12-25T13:08:17.631Z,7.80
2022-12-25T13:10:51.342Z,7.00
2022-12-25T13:13:22.963Z,7.77
2022-12-25T13:15:51.532Z,7.10
2022-12-25T13:18:18.660Z,7.07
2022-12-25T13:20:56.609Z,8.70
2022-12-25T13:23:30.719Z,7.70
2022-12-25T13:26:00.780Z,7.90
2022-12-25T13:28:33.456Z,8.00
2022-12-25T13:31:07.321Z,8.17
2022-12-25T13:33:34.515Z,8.37
2022-12-25T13:36:01.415Z,8.33
2022-12-25T13:38:29.046Z,8.00
2022-12-25T13:41:29.701Z,9.23
2022-12-25T13:43:59.240Z,8.53
2022-12-25T13:46:27.603Z,8.50
2022-12-25T13:49:01.368Z,7.80
2022-12-25T13:51:28.370Z,8.40
2022-12-25T13:54:06.053Z,7.90
2022-12-25T13:56:35.008Z,8.70
2022-12-25T13:59:02.611Z,8.63
2022-12-25T14:01:29.493Z,8.93
2022-12-25T14:03:56.447Z,16.37
2022-12-25T14:06:28.906Z,15.87
2022-12-25T14:08:58.217Z,15.60
2022-12-25T14:11:27.341Z,10.60
2022-12-25T14:14:01.504Z,11.03
2022-12-25T14:16:28.953Z,12.53
2022-12-25T14:18:58.975Z,10.70
2022-12-25T14:21:35.378Z,11.50
2022-12-25T14:24:02.133Z,11.30
2022-12-25T14:26:31.493Z,10.47
2022-12-25T14:29:16.520Z,9.43
2022-12-25T14:31:45.079Z,12.60
2022-12-25T14:34:17.000Z,11.70
2022-12-25T14:36:43.782Z,12.50
2022-12-25T14:39:36.187Z,12.53
2022-12-25T14:42:17.677Z,10.53
2022-12-25T14:44:44.317Z,9.00
2022-12-25T14:47:10.916Z,7.40
2022-12-25T14:49:38.364Z,9.70
2022-12-25T14:52:19.290Z,8.80
2022-12-25T14:55:06.546Z,10.23
2022-12-25T14:57:37.502Z,10.20
2022-12-25T15:00:24.074Z,11.13
2022-12-25T15:02:53.214Z,11.00
2022-12-25T15:05:34.468Z,12.17
2022-12-25T15:08:24.882Z,11.90
2022-12-25T15:11:01.611Z,11.57
2022-12-25T15:13:30.803Z,11.70
2022-12-25T15:16:06.474Z,12.40
2022-12-25T15:18:39.444Z,13.90
2022-12-25T15:21:07.046Z,13.53
2022-12-25T15:23:33.689Z,14.57
2022-12-25T15:26:00.324Z,13.23
2022-12-25T15:28:27.012Z,14.40
2022-12-25T15:30:53.634Z,15.53
2022-12-25T15:33:20.288Z,16.20
2022-12-25T15:35:46.917Z,14.90
2022-12-25T15:38:13.793Z,12.47
2022-12-25T15:40:41.552Z,12.40
2022-12-25T15:43:39.015Z,13.93
2022-12-25T15:45:59.350Z,15.70
2022-12-25T15:48:25.921Z,13.07
2022-12-25T15:50:52.476Z,15.60
2022-12-25T15:53:19.016Z,12.90
2022-12-25T15:55:45.616Z,12.70
2022-12-25T15:58:14.988Z,12.13
2022-12-25T16:00:41.556Z,15.97
2022-12-25T16:03:08.254Z,13.30
2022-12-25T16:05:35.127Z,12.33
2022-12-25T16:08:04.273Z,13.07
2022-12-25T16:10:36.543Z,12.30
2022-12-25T16:13:05.154Z,10.57
2022-12-25T16:15:31.828Z,11.10
2022-12-25T16:17:58.538Z,12.50
2022-12-25T16:20:25.113Z,12.00
2022-12-25T16:22:51.692Z,10.50
2022-12-25T16:25:19.737Z,11.33
2022-12-25T16:27:46.691Z,11.60
2022-12-25T16:30:16.007Z,11.17
2022-12-25T16:32:43.991Z,12.73
2022-12-25T16:35:11.443Z,13.00
2022-12-25T16:37:38.210Z,10.40
2022-12-25T16:40:05.546Z,16.30
2022-12-25T16:42:32.121Z,15.90
2022-12-25T16:44:58.669Z,16.70
2022-12-25T16:47:25.724Z,14.27
2022-12-25T16:49:52.290Z,14.67
2022-12-25T16:52:18.910Z,14.07
2022-12-25T16:54:46.477Z,13.23
2022-12-25T16:57:13.991Z,13.23
2022-12-25T16:59:41.458Z,13.93
2022-12-25T17:02:13.959Z,14.17
2022-12-25T17:04:40.746Z,13.43
2022-12-25T17:07:07.275Z,15.43
2022-12-25T17:09:37.501Z,16.60
2022-12-25T17:12:07.893Z,17.40
2022-12-25T17:14:34.952Z,19.33
2022-12-25T17:17:02.460Z,20.30
2022-12-25T17:19:29.081Z,25.13
2022-12-25T17:21:55.758Z,28.53
2022-12-25T17:24:22.566Z,21.60
2022-12-25T17:26:49.465Z,34.30
2022-12-25T17:29:21.724Z,31.10
2022-12-25T17:31:49.181Z,28.37
2022-12-25T17:34:15.852Z,28.50
2022-12-25T17:36:42.461Z,25.83
2022-12-25T17:39:10.788Z,26.90
2022-12-25T17:41:37.600Z,30.23
2022-12-25T17:44:04.319Z,26.33
2022-12-25T17:46:31.537Z,24.07
2022-12-25T17:49:00.321Z,22.67
2022-12-25T17:51:29.844Z,24.50
2022-12-25T17:53:59.665Z,23.27
2022-12-25T17:56:26.686Z,23.40
2022-12-25T17:58:55.966Z,24.80
2022-12-25T18:01:24.323Z,23.83
2022-12-25T18:03:51.496Z,23.37
2022-12-25T18:06:21.177Z,25.13
2022-12-25T18:08:48.226Z,12.70
2022-12-25T18:11:20.978Z,13.40
2022-12-25T18:13:50.683Z,13.90
2022-12-25T18:16:18.486Z,14.30
2022-12-25T18:18:51.385Z,13.93
2022-12-25T18:21:19.160Z,13.70
2022-12-25T18:23:46.297Z,13.90
2022-12-25T18:26:13.142Z,13.50
2022-12-25T18:28:42.187Z,13.30
2022-12-25T18:31:11.390Z,13.80
2022-12-25T18:33:38.055Z,13.13
2022-12-25T18:36:05.393Z,12.60
2022-12-25T18:38:32.036Z,12.83
2022-12-25T18:40:58.682Z,13.40
2022-12-25T18:43:53.020Z,12.50
2022-12-25T18:46:12.036Z,11.23
2022-12-25T18:48:39.700Z,11.47
2022-12-25T18:51:09.241Z,11.83
2022-12-25T18:53:36.128Z,12.60
2022-12-25T18:56:12.077Z,11.33
2022-12-25T18:58:39.118Z,10.23
2022-12-25T19:01:23.029Z,10.60
2022-12-25T19:03:51.543Z,11.40
2022-12-25T19:06:20.501Z,9.73
2022-12-25T19:08:47.291Z,10.43
2022-12-25T19:11:14.571Z,10.60
2022-12-25T19:13:41.237Z,10.97
2022-12-25T19:16:08.078Z,10.50
2022-12-25T19:18:34.772Z,9.67
2022-12-25T19:21:03.800Z,10.40
2022-12-25T19:23:30.737Z,10.80
2022-12-25T19:25:57.371Z,11.10
2022-12-25T19:28:25.065Z,10.47
2022-12-25T19:30:53.786Z,10.93
2022-12-25T19:33:21.563Z,9.87
2022-12-25T19:35:48.842Z,10.20
2022-12-25T19:38:15.502Z,11.23
2022-12-25T19:40:59.881Z,10.40
2022-12-25T19:43:38.199Z,10.57
2022-12-25T19:46:06.620Z,11.40
2022-12-25T19:48:34.276Z,10.87
2022-12-25T19:51:00.944Z,10.93
2022-12-25T19:53:29.367Z,11.80
2022-12-25T19:55:55.943Z,11.40
2022-12-25T19:58:23.409Z,10.50
2022-12-25T20:01:01.066Z,11.40
2022-12-25T20:03:28.186Z,11.20
2022-12-25T20:05:54.958Z,11.47
2022-12-25T20:08:21.655Z,12.13
2022-12-25T20:10:49.158Z,11.47
2022-12-25T20:13:16.307Z,12.17
2022-12-25T20:15:42.939Z,12.20
2022-12-25T20:18:09.584Z,11.67
2022-12-25T20:20:36.330Z,11.67
2022-12-25T20:23:03.636Z,12.20
2022-12-25T20:25:30.345Z,11.60
2022-12-25T20:27:57.187Z,11.73
2022-12-25T20:30:23.877Z,10.37
2022-12-25T20:32:50.912Z,11.27
2022-12-25T20:35:17.788Z,10.67
2022-12-25T20:37:44.429Z,9.70
2022-12-25T20:40:11.989Z,11.80
2022-12-25T20:42:38.563Z,11.33
2022-12-25T20:45:07.558Z,10.30
2022-12-25T20:47:35.015Z,12.50
2022-12-25T20:50:01.767Z,12.90
2022-12-25T20:52:28.363Z,13.70
2022-12-25T20:54:55.204Z,13.80
2022-12-25T20:57:21.888Z,13.83
2022-12-25T20:59:48.594Z,14.90
2022-12-25T21:02:35.796Z,16.80
2022-12-25T21:05:02.106Z,15.33
2022-12-25T21:07:28.692Z,16.63
2022-12-25T21:09:55.252Z,15.63
2022-12-25T21:12:21.893Z,16.63
2022-12-25T21:14:48.549Z,16.13
2022-12-25T21:17:15.253Z,17.00
2022-12-25T21:19:41.959Z,15.47
2022-12-25T21:22:08.761Z,16.37
2022-12-25T21:24:35.576Z,16.27
2022-12-25T21:27:02.195Z,16.63
2022-12-25T21:29:28.780Z,16.90
2022-12-25T21:32:14.211Z,16.70
2022-12-25T21:34:40.918Z,15.80
2022-12-25T21:37:07.490Z,15.80
2022-12-25T21:39:34.101Z,14.10
2022-12-25T21:42:00.709Z,15.07
2022-12-25T21:44:27.310Z,13.97
2022-12-25T21:46:54.216Z,14.00
2022-12-25T21:49:39.593Z,14.23
2022-12-25T21:52:09.398Z,14.90
2022-12-25T21:54:36.346Z,14.13
2022-12-25T21:57:03.240Z,13.40
2022-12-25T21:59:29.867Z,15.47
2022-12-25T22:01:56.566Z,12.87
2022-12-25T22:04:23.668Z,13.13
2022-12-25T22:07:09.066Z,11.70
2022-12-25T22:09:36.243Z,10.00
2022-12-25T22:12:21.967Z,10.77
2022-12-25T22:14:56.164Z,10.37
2022-12-25T22:17:59.387Z,9.17
2022-12-25T22:20:27.819Z,9.83
2022-12-25T22:22:54.754Z,9.53
2022-12-25T22:25:21.916Z,8.30
2022-12-25T22:27:49.401Z,8.40
2022-12-25T22:30:21.737Z,7.93
2022-12-25T22:32:48.787Z,6.83
2022-12-25T22:35:15.458Z,7.60
2022-12-25T22:37:42.844Z,7.40
2022-12-25T22:40:12.530Z,7.10
2022-12-25T22:42:39.106Z,6.40
2022-12-25T22:45:06.137Z,6.17
2022-12-25T22:47:32.883Z,6.20
2022-12-25T22:49:59.525Z,6.63
2022-12-25T22:52:26.281Z,6.00
2022-12-25T22:54:52.848Z,6.40
2022-12-25T22:57:19.444Z,6.40
2022-12-25T22:59:46.438Z,7.03
2022-12-25T23:02:13.515Z,6.37
2022-12-25T23:04:40.195Z,6.47
2022-12-25T23:07:06.871Z,6.40
2022-12-25T23:09:34.213Z,7.23
2022-12-25T23:12:00.768Z,7.17
2022-12-25T23:14:40.380Z,6.67
2022-12-25T23:17:30.330Z,6.30
2022-12-25T23:20:19.022Z,6.17
2022-12-25T23:23:04.891Z,6.30
2022-12-25T23:26:10.022Z,7.63
2022-12-25T23:29:00.289Z,6.27
2022-12-25T23:31:30.360Z,6.53
2022-12-25T23:33:57.578Z,6.23
2022-12-25T23:36:24.514Z,6.60
2022-12-25T23:38:51.126Z,7.20
2022-12-25T23:41:17.720Z,6.43
2022-12-25T23:43:44.583Z,7.00
2022-12-25T23:46:11.340Z,6.57
2022-12-25T23:48:37.970Z,6.50
2022-12-25T23:51:05.736Z,6.60
2022-12-25T23:53:32.487Z,7.80
2022-12-25T23:55:59.539Z,7.10
2022-12-25T23:58:27.713Z,6.50
